Time;durP1;ratioP1;P1;durP2;ratioP2;P2;SDS_P1;SDS_P2;PMS_P1;PMS_P2;Temp;Humidity;BMP_temperature;BMP_pressure;BME280_temperature;BME280_humidity;BME280_pressure;Samples;Min_cycle;Max_cycle;Signal;HPM_P1;HPM_P2
2022/12/25 00:00:23;;;;;;;37.40;29.08;;;;;;;3.79;100.00;96027.38;5067787;28;20044;-62
2022/12/25 00:02:48;;;;;;;37.47;27.40;;;;;;;3.73;100.00;96029.41;5063661;28;20046;-62
2022/12/25 00:05:14;;;;;;;30.35;25.08;;;;;;;3.71;100.00;96020.88;5068588;28;20510;-62
2022/12/25 00:07:39;;;;;;;40.35;28.83;;;;;;;3.67;100.00;96016.78;5066559;28;20063;-64
2022/12/25 00:10:05;;;;;;;35.60;27.63;;;;;;;3.67;100.00;96008.09;5069965;28;20036;-60
2022/12/25 00:12:30;;;;;;;45.05;28.45;;;;;;;3.66;100.00;96011.63;5071949;28;20035;-57
2022/12/25 00:14:56;;;;;;;55.75;32.30;;;;;;;3.65;100.00;96009.97;5065788;28;20029;-56
2022/12/25 00:17:21;;;;;;;44.53;27.17;;;;;;;3.58;100.00;96010.34;5071416;28;20035;-57
2022/12/25 00:19:46;;;;;;;45.45;28.38;;;;;;;3.53;100.00;96003.72;5065079;28;20033;-56
2022/12/25 00:22:12;;;;;;;47.75;27.48;;;;;;;3.48;100.00;96009.19;5070295;28;20045;-58
2022/12/25 00:24:37;;;;;;;49.05;29.33;;;;;;;3.48;100.00;96005.78;5066868;28;20040;-58
2022/12/25 00:27:02;;;;;;;46.92;29.95;;;;;;;3.51;100.00;96013.38;5070518;28;20486;-71
2022/12/25 00:29:28;;;;;;;55.10;29.10;;;;;;;3.54;100.00;96002.78;5067297;28;20566;-63
2022/12/25 00:31:53;;;;;;;48.58;28.60;;;;;;;3.53;100.00;96012.34;5069322;28;20056;-61
2022/12/25 00:34:19;;;;;;;59.40;25.52;;;;;;;3.56;100.00;96006.16;5069903;28;20490;-61
2022/12/25 00:36:44;;;;;;;48.97;17.13;;;;;;;3.64;100.00;96006.50;5071104;28;20422;-61
2022/12/25 00:39:09;;;;;;;36.55;14.02;;;;;;;3.68;100.00;96004.56;5085541;28;20041;-61
2022/12/25 00:44:19;;;;;;;31.45;18.30;;;;;;;3.55;100.00;96002.72;5071002;28;20090;-61
2022/12/25 00:46:44;;;;;;;38.88;15.93;;;;;;;3.48;100.00;95992.75;5071818;28;20481;-62
2022/12/25 00:49:10;;;;;;;23.13;15.30;;;;;;;3.40;100.00;95993.19;5070827;28;20024;-67
2022/12/25 00:51:36;;;;;;;20.95;14.05;;;;;;;3.37;100.00;95991.59;5066209;28;20459;-60
2022/12/25 00:54:01;;;;;;;28.70;16.80;;;;;;;3.33;100.00;95989.28;5066393;28;20061;-60
2022/12/25 00:56:27;;;;;;;18.88;15.05;;;;;;;3.29;100.00;95984.25;5071206;28;20041;-60
2022/12/25 00:58:53;;;;;;;17.65;14.70;;;;;;;3.33;100.00;95989.28;5069571;28;20048;-60
2022/12/25 01:01:18;;;;;;;17.08;13.82;;;;;;;3.33;100.00;95990.13;5071343;28;20029;-60
2022/12/25 01:03:44;;;;;;;20.02;15.20;;;;;;;3.29;100.00;95986.84;5069493;28;20036;-60
2022/12/25 01:06:11;;;;;;;20.27;17.35;;;;;;;3.32;100.00;95991.03;5070937;28;20045;-62
2022/12/25 01:10:21;;;;;;;19.10;17.17;;;;;;;3.37;100.00;95991.59;5068212;28;20061;-60
2022/12/25 01:11:25;;;;;;;19.65;16.92;;;;;;;3.36;100.00;95995.13;5068404;28;20044;-63
2022/12/25 01:13:50;;;;;;;19.73;16.98;;;;;;;3.31;100.00;95984.16;5070710;28;20106;-63
2022/12/25 01:16:16;;;;;;;18.73;16.90;;;;;;;3.29;100.00;95983.41;5069665;28;20041;-63
2022/12/25 01:18:43;;;;;;;19.67;17.33;;;;;;;3.24;100.00;95985.47;5069481;28;20044;-62
2022/12/25 01:21:10;;;;;;;18.20;16.30;;;;;;;3.23;100.00;95986.38;5068047;28;20033;-62
2022/12/25 01:23:35;;;;;;;17.27;15.55;;;;;;;3.21;100.00;95978.66;5069103;28;20107;-62
2022/12/25 01:26:05;;;;;;;17.55;15.45;;;;;;;3.15;100.00;95985.06;5069903;28;20127;-61
2022/12/25 01:28:30;;;;;;;16.85;15.00;;;;;;;3.10;100.00;95979.28;5070428;28;20045;-71
2022/12/25 01:30:55;;;;;;;18.80;15.13;;;;;;;3.07;100.00;95984.66;5068809;28;20037;-71
2022/12/25 01:33:21;;;;;;;23.02;14.48;;;;;;;3.07;100.00;95979.47;5069360;28;20125;-71
2022/12/25 01:35:46;;;;;;;16.00;14.38;;;;;;;3.06;100.00;95972.59;5068544;28;20064;-71
2022/12/25 01:38:11;;;;;;;17.67;15.13;;;;;;;3.06;100.00;95972.59;5068464;28;20044;-71
2022/12/25 01:40:37;;;;;;;17.65;15.82;;;;;;;3.07;100.00;95973.41;5069018;28;20036;-71
2022/12/25 01:43:02;;;;;;;18.80;14.55;;;;;;;3.04;100.00;95973.59;5051640;28;20031;-70
2022/12/25 01:45:43;;;;;;;33.38;15.20;;;;;;;2.98;100.00;95973.03;5070070;28;20040;-57
2022/12/25 01:48:13;;;;;;;19.65;12.68;;;;;;;2.93;100.00;95969.00;5068788;28;20037;-62
2022/12/25 01:50:42;;;;;;;14.68;13.15;;;;;;;2.93;100.00;95972.47;5067978;28;20033;-62
2022/12/25 01:53:07;;;;;;;11.85;10.80;;;;;;;2.93;100.00;95966.41;5069414;28;20040;-62
2022/12/25 01:55:34;;;;;;;13.52;11.55;;;;;;;2.94;100.00;95957.69;5066876;28;20041;-63
2022/12/25 01:58:00;;;;;;;12.18;10.98;;;;;;;2.92;100.00;95962.97;5069315;28;20060;-63
2022/12/25 02:00:25;;;;;;;14.55;12.02;;;;;;;2.89;100.00;95960.56;5067208;28;20063;-63
2022/12/25 02:02:51;;;;;;;13.60;12.23;;;;;;;2.88;100.00;95964.09;5067546;28;20037;-62
2022/12/25 02:05:24;;;;;;;11.88;10.52;;;;;;;2.85;100.00;95962.50;5067025;28;20430;-62
2022/12/25 02:07:50;;;;;;;15.40;12.68;;;;;;;2.81;100.00;95955.78;5068418;28;20115;-68
2022/12/25 02:10:16;;;;;;;13.88;12.40;;;;;;;2.79;100.00;95959.41;5063258;28;20136;-67
2022/12/25 02:12:43;;;;;;;12.85;11.52;;;;;;;2.73;100.00;95957.97;5069702;28;20486;-67
2022/12/25 02:15:21;;;;;;;12.80;11.43;;;;;;;2.72;100.00;95953.69;5067107;28;20031;-67
2022/12/25 02:18:01;;;;;;;20.73;15.20;;;;;;;2.79;100.00;95954.19;5067323;28;20042;-68
2022/12/25 02:20:44;;;;;;;20.80;16.50;;;;;;;2.82;100.00;95956.63;5068106;28;20058;-67
2022/12/25 02:23:09;;;;;;;21.13;16.13;;;;;;;2.79;100.00;95955.03;5068213;28;20029;-55
2022/12/25 02:25:56;;;;;;;24.95;16.05;;;;;;;2.76;100.00;95954.38;5069297;28;20513;-63
2022/12/25 02:29:00;;;;;;;27.55;15.30;;;;;;;2.71;100.00;95950.28;5066771;28;20106;-63
2022/12/25 02:32:01;;;;;;;16.58;13.00;;;;;;;2.68;100.00;95952.19;5064607;28;20110;-63
2022/12/25 02:35:05;;;;;;;12.90;10.68;;;;;;;2.74;100.00;95946.66;5054537;28;20163;-62
2022/12/25 02:37:39;;;;;;;12.85;10.18;;;;;;;2.73;100.00;95947.56;5059996;28;20041;-63
2022/12/25 02:40:24;;;;;;;20.23;10.27;;;;;;;2.71;100.00;95944.22;5068164;28;20063;-63
2022/12/25 03:08:12;;;;;;;10.18;9.23;;;;;;;2.54;100.00;95929.59;5063195;28;20075;-56
2022/12/25 03:13:34;;;;;;;11.10;10.00;;;;;;;2.55;100.00;95915.66;5065790;28;20043;-57
2022/12/25 03:18:44;;;;;;;13.38;7.82;;;;;;;2.69;100.00;95894.06;5063940;28;20078;-55
2022/12/25 03:26:53;;;;;;;7.75;7.10;;;;;;;2.58;100.00;95872.16;5069958;28;20035;-62
2022/12/25 03:32:37;;;;;;;6.50;6.00;;;;;;;2.65;100.00;95861.38;5067367;28;20090;-63
2022/12/25 03:35:30;;;;;;;7.90;7.25;;;;;;;2.68;100.00;95859.47;5067333;28;20119;-62
2022/12/25 04:36:12;;;;;;;7.93;6.68;;;;;;;2.56;100.00;95835.00;5058065;28;20473;-57
2022/12/25 04:38:39;;;;;;;14.13;5.88;;;;;;;2.53;100.00;95842.13;5065101;28;20045;-59
2022/12/25 04:41:05;;;;;;;9.15;6.10;;;;;;;2.49;100.00;95843.25;5063759;28;20039;-62
2022/12/25 04:43:31;;;;;;;13.68;5.03;;;;;;;2.51;100.00;95844.81;5066848;28;20094;-62
2022/12/25 04:45:59;;;;;;;7.28;4.63;;;;;;;2.55;100.00;95848.94;5064329;28;20464;-62
2022/12/25 04:48:26;;;;;;;17.40;5.60;;;;;;;2.52;100.00;95845.66;5070440;28;20102;-62
2022/12/25 04:50:52;;;;;;;13.50;4.72;;;;;;;2.45;100.00;95836.56;5066949;28;20055;-62
2022/12/25 04:53:18;;;;;;;6.85;6.25;;;;;;;2.40;100.00;95839.41;5069397;28;20506;-62
2022/12/25 04:55:43;;;;;;;6.75;6.25;;;;;;;2.39;100.00;95829.94;5068286;28;20085;-62
2022/12/25 04:58:09;;;;;;;6.85;6.25;;;;;;;2.40;100.00;95829.03;5068673;28;20099;-55
2022/12/25 05:00:34;;;;;;;7.10;6.50;;;;;;;2.44;100.00;95827.91;5072482;28;20035;-69
2022/12/25 05:02:59;;;;;;;6.47;5.88;;;;;;;2.46;100.00;95822.63;5071065;28;20032;-68
2022/12/25 05:05:25;;;;;;;6.15;5.55;;;;;;;2.46;100.00;95818.25;5068333;28;20052;-68
2022/12/25 05:07:50;;;;;;;6.47;5.63;;;;;;;2.38;100.00;95816.09;5065938;28;20040;-68
2022/12/25 05:10:15;;;;;;;7.20;6.50;;;;;;;2.36;100.00;95819.72;5066309;28;20093;-68
2022/12/25 05:12:41;;;;;;;10.65;8.88;;;;;;;2.39;100.00;95816.97;5068362;28;20036;-68
2022/12/25 05:15:07;;;;;;;9.32;8.52;;;;;;;2.42;100.00;95815.00;5064578;28;20028;-68
2022/12/25 05:17:32;;;;;;;8.75;7.95;;;;;;;2.46;100.00;95830.44;5071759;28;20032;-68
2022/12/25 05:19:58;;;;;;;9.35;8.52;;;;;;;2.41;100.00;95838.50;5064592;28;20056;-69
2022/12/25 05:22:23;;;;;;;9.95;9.07;;;;;;;2.39;100.00;95840.34;5071545;28;20036;-68
2022/12/25 05:24:48;;;;;;;10.32;7.80;;;;;;;2.37;100.00;95837.81;5067913;28;20570;-68
2022/12/25 05:27:14;;;;;;;9.55;8.70;;;;;;;2.28;100.00;95849.56;5067658;28;20567;-68
2022/12/25 05:29:39;;;;;;;9.98;8.05;;;;;;;2.28;100.00;95852.16;5070195;28;20028;-69
2022/12/25 05:32:05;;;;;;;7.90;7.22;;;;;;;2.28;100.00;95859.16;5068343;28;20051;-67
2022/12/25 05:34:30;;;;;;;7.90;7.30;;;;;;;2.26;100.00;95851.41;5067212;28;20090;-68
2022/12/25 05:36:55;;;;;;;7.07;6.25;;;;;;;2.23;100.00;95856.78;5066724;28;20414;-62
2022/12/25 05:39:21;;;;;;;11.73;7.78;;;;;;;2.17;100.00;95844.16;5069400;28;20441;-67
2022/12/25 05:41:47;;;;;;;20.88;10.02;;;;;;;2.22;100.00;95847.31;5069926;28;20399;-68
2022/12/25 05:44:12;;;;;;;10.27;6.53;;;;;;;2.35;100.00;95846.66;5069928;28;20043;-67
2022/12/25 05:46:38;;;;;;;17.23;6.60;;;;;;;2.42;100.00;95853.16;5066137;28;20033;-67
2022/12/25 05:49:04;;;;;;;8.30;7.50;;;;;;;2.39;100.00;95864.56;5065802;28;20029;-67
2022/12/25 05:51:30;;;;;;;7.55;6.90;;;;;;;2.36;100.00;95876.91;5065935;28;20461;-67
2022/12/25 05:53:56;;;;;;;9.07;6.07;;;;;;;2.38;100.00;95872.44;5065386;28;20056;-67
2022/12/25 05:56:21;;;;;;;7.32;6.75;;;;;;;2.36;100.00;95859.53;5069813;28;20060;-57
2022/12/25 05:58:47;;;;;;;16.52;6.38;;;;;;;2.32;100.00;95863.22;5066147;28;20028;-61
2022/12/25 06:01:23;;;;;;;27.27;7.05;;;;;;;2.27;100.00;95863.47;5066329;28;20451;-62
2022/12/25 06:03:48;;;;;;;26.67;5.18;;;;;;;2.38;100.00;95868.06;5066818;28;20151;-61
2022/12/25 06:06:14;;;;;;;7.30;6.50;;;;;;;2.25;100.00;95862.75;5063173;28;20120;-61
2022/12/25 06:08:40;;;;;;;17.30;8.20;;;;;;;2.20;100.00;95869.09;5066139;28;20119;-61
2022/12/25 06:11:07;;;;;;;7.32;6.72;;;;;;;2.12;100.00;95865.19;5067487;28;20510;-62
2022/12/25 06:13:34;;;;;;;8.30;6.90;;;;;;;2.13;100.00;95866.03;5065651;28;20422;-62
2022/12/25 06:16:03;;;;;;;8.38;6.97;;;;;;;2.13;100.00;95864.28;5067562;28;20094;-61
2022/12/25 06:18:28;;;;;;;7.03;6.43;;;;;;;2.17;100.00;95859.75;5064053;28;20106;-59
2022/12/25 06:20:54;;;;;;;7.30;6.78;;;;;;;2.17;100.00;95862.34;5065492;28;20489;-60
2022/12/25 06:23:19;;;;;;;12.98;12.00;;;;;;;2.17;100.00;95851.09;5066838;28;20062;-59
2022/12/25 06:25:44;;;;;;;14.88;13.60;;;;;;;2.11;100.00;95841.91;5063653;28;20116;-59
2022/12/25 06:28:10;;;;;;;20.98;19.17;;;;;;;2.17;100.00;95845.91;5069426;28;20124;-59
2022/12/25 06:30:35;;;;;;;15.98;14.77;;;;;;;2.20;100.00;95837.94;5060339;28;20060;-59
2022/12/25 06:33:00;;;;;;;14.68;13.57;;;;;;;2.15;100.00;95843.41;5065873;28;20060;-61
2022/12/25 06:35:26;;;;;;;13.52;12.43;;;;;;;2.08;100.00;95842.06;5065040;28;20105;-73
2022/12/25 06:37:51;;;;;;;11.90;10.75;;;;;;;2.09;100.00;95841.13;5067892;28;20040;-59
2022/12/25 06:40:17;;;;;;;11.35;10.55;;;;;;;2.03;100.00;95847.53;5063530;28;20028;-59
2022/12/25 06:42:43;;;;;;;10.30;9.60;;;;;;;2.09;100.00;95846.34;5063849;28;20081;-60
2022/12/25 06:45:09;;;;;;;9.98;9.18;;;;;;;2.06;100.00;95854.31;5058409;28;20028;-59
2022/12/25 06:47:36;;;;;;;11.10;9.40;;;;;;;2.04;100.00;95858.75;5063108;28;20643;-59
2022/12/25 06:50:02;;;;;;;10.52;8.98;;;;;;;2.03;100.00;95868.31;5066452;28;20071;-59
2022/12/25 06:52:31;;;;;;;10.23;9.43;;;;;;;2.05;100.00;95870.81;5069025;28;20049;-62
2022/12/25 06:54:56;;;;;;;10.18;9.35;;;;;;;2.03;100.00;95868.31;5063930;28;20115;-71
2022/12/25 06:57:21;;;;;;;9.43;8.70;;;;;;;2.04;100.00;95869.97;5061864;28;20475;-59
2022/12/25 06:59:47;;;;;;;10.10;9.13;;;;;;;2.09;100.00;95860.16;5064143;28;20113;-60
2022/12/25 07:02:20;;;;;;;14.35;13.07;;;;;;;2.20;100.00;95880.34;5061886;28;20461;-59
2022/12/25 07:04:46;;;;;;;12.95;11.73;;;;;;;2.19;100.00;95870.88;5064447;28;20033;-60
2022/12/25 07:07:12;;;;;;;34.95;13.02;;;;;;;2.23;100.00;95869.78;5062761;28;20061;-60
2022/12/25 07:09:41;;;;;;;13.63;12.43;;;;;;;2.22;100.00;95880.28;5064968;28;20169;-59
2022/12/25 07:12:16;;;;;;;30.92;13.95;;;;;;;2.17;100.00;95870.13;5068351;28;20456;-62
2022/12/25 07:14:42;;;;;;;17.42;14.10;;;;;;;2.18;100.00;95868.34;5060372;28;20025;-68
2022/12/25 07:17:08;;;;;;;14.00;12.70;;;;;;;2.23;100.00;95871.56;5063313;28;20028;-58
2022/12/25 07:19:33;;;;;;;11.63;10.63;;;;;;;2.32;100.00;95868.44;5065404;28;20507;-59
2022/12/25 07:21:58;;;;;;;12.20;11.20;;;;;;;2.38;100.00;95882.84;5062648;28;20032;-59
2022/12/25 07:24:24;;;;;;;16.35;14.82;;;;;;;2.35;100.00;95886.44;5062390;28;20041;-59
2022/12/25 07:26:50;;;;;;;15.00;13.52;;;;;;;2.28;100.00;95882.53;5059009;28;20036;-59
2022/12/25 07:29:16;;;;;;;15.93;14.43;;;;;;;2.25;100.00;95890.50;5069237;28;20028;-60
2022/12/25 07:31:42;;;;;;;15.98;14.50;;;;;;;2.22;100.00;95886.28;5065812;28;20050;-62
2022/12/25 07:34:07;;;;;;;15.07;13.68;;;;;;;2.20;100.00;95888.16;5068303;28;20502;-67
2022/12/25 07:36:33;;;;;;;14.82;13.55;;;;;;;2.18;100.00;95892.59;5066116;28;20037;-59
2022/12/25 07:38:58;;;;;;;15.70;14.18;;;;;;;2.14;100.00;95893.69;5064215;28;20040;-59
2022/12/25 07:41:23;;;;;;;17.13;15.43;;;;;;;2.12;100.00;95895.53;5068378;28;20040;-58
2022/12/25 07:43:52;;;;;;;16.85;15.20;;;;;;;2.11;100.00;95905.06;5066826;28;20032;-59
2022/12/25 07:46:19;;;;;;;15.95;14.65;;;;;;;2.11;100.00;95910.28;5065777;28;20048;-59
2022/12/25 07:48:44;;;;;;;18.98;17.20;;;;;;;2.18;100.00;95913.38;5064982;28;20082;-59
2022/12/25 07:51:13;;;;;;;16.10;14.70;;;;;;;2.15;100.00;95903.16;5048444;28;20036;-61
2022/12/25 07:53:39;;;;;;;14.65;13.45;;;;;;;2.12;100.00;95904.16;5068215;28;20533;-62
2022/12/25 07:56:08;;;;;;;12.18;10.98;;;;;;;2.22;100.00;95899.28;5062564;28;20044;-62
2022/12/25 07:58:34;;;;;;;14.27;13.05;;;;;;;2.22;100.00;95898.47;5059870;28;20038;-61
2022/12/25 08:01:05;;;;;;;14.63;13.45;;;;;;;2.23;100.00;95903.56;5064612;28;20477;-61
2022/12/25 08:03:32;;;;;;;14.18;12.98;;;;;;;2.24;100.00;95900.03;5061376;28;20044;-61
2022/12/25 08:06:03;;;;;;;15.75;14.38;;;;;;;2.25;100.00;95909.50;5060687;28;20414;-62
2022/12/25 08:08:28;;;;;;;15.93;14.63;;;;;;;2.29;100.00;95915.38;5062146;28;20042;-61
2022/12/25 08:10:54;;;;;;;16.55;15.23;;;;;;;2.31;100.00;95912.69;5067555;28;20033;-63
2022/12/25 08:13:19;;;;;;;15.68;14.38;;;;;;;2.35;100.00;95909.81;5048433;28;20543;-59
2022/12/25 08:15:45;;;;;;;15.70;14.35;;;;;;;2.47;100.00;95907.47;5063645;28;20052;-59
2022/12/25 08:18:10;;;;;;;14.77;13.45;;;;;;;2.55;100.00;95915.66;5068295;28;20044;-59
2022/12/25 08:20:36;;;;;;;19.75;18.10;;;;;;;2.65;100.00;95914.25;5066761;28;20028;-59
2022/12/25 08:23:02;;;;;;;44.72;39.55;;;;;;;2.78;100.00;95918.72;5070006;28;20051;-59
2022/12/25 08:25:27;;;;;;;41.97;35.13;;;;;;;2.88;100.00;95921.63;5066428;28;20025;-59
2022/12/25 08:27:52;;;;;;;27.50;24.55;;;;;;;2.86;100.00;95927.75;5071407;28;20040;-59
2022/12/25 08:30:18;;;;;;;22.95;20.75;;;;;;;2.88;100.00;95932.03;5069106;28;20040;-67
2022/12/25 08:32:43;;;;;;;21.45;19.30;;;;;;;2.93;100.00;95935.19;5065673;28;20037;-62
2022/12/25 08:35:09;;;;;;;22.55;20.13;;;;;;;3.00;100.00;95923.53;5068484;28;20029;-62
2022/12/25 08:37:34;;;;;;;22.95;20.85;;;;;;;3.10;100.00;95927.25;5069140;28;20134;-62
2022/12/25 08:39:59;;;;;;;20.33;18.50;;;;;;;3.20;100.00;95924.09;5071971;28;20746;-62
2022/12/25 08:42:25;;;;;;;24.08;21.77;;;;;;;3.31;100.00;95919.09;5067865;28;20063;-62
2022/12/25 08:44:50;;;;;;;33.95;30.95;;;;;;;3.47;100.00;95931.22;5066638;28;20032;-62
2022/12/25 08:47:15;;;;;;;34.40;31.13;;;;;;;3.61;100.00;95933.78;5070633;28;20041;-62
2022/12/25 08:49:41;;;;;;;33.35;30.30;;;;;;;3.73;100.00;95932.22;5071507;28;20036;-56
2022/12/25 08:52:06;;;;;;;37.05;33.67;;;;;;;3.83;100.00;95935.94;5069141;28;20060;-56
2022/12/25 08:54:35;;;;;;;33.08;29.98;;;;;;;3.95;100.00;95930.88;5070666;28;20040;-57
2022/12/25 08:57:03;;;;;;;33.50;30.35;;;;;;;4.07;100.00;95926.69;5068942;28;20035;-56
2022/12/25 08:59:28;;;;;;;38.47;34.53;;;;;;;4.23;100.00;95927.41;5065321;28;20029;-57
2022/12/25 09:01:54;;;;;;;23.92;21.55;;;;;;;4.38;100.00;95920.38;5066222;28;20090;-56
2022/12/25 09:04:19;;;;;;;20.05;18.15;;;;;;;4.61;100.00;95920.66;5070112;28;20102;-56
2022/12/25 09:06:45;;;;;;;20.77;18.95;;;;;;;4.77;100.00;95915.31;5066736;28;20101;-57
2022/12/25 09:09:10;;;;;;;26.58;24.02;;;;;;;4.90;100.00;95911.88;5065658;28;20474;-55
2022/12/25 09:11:35;;;;;;;24.67;22.33;;;;;;;4.96;100.00;95924.50;5065627;28;20498;-60
2022/12/25 09:14:01;;;;;;;24.75;22.50;;;;;;;5.02;100.00;95922.31;5067959;28;20051;-60
2022/12/25 09:16:26;;;;;;;25.77;23.42;;;;;;;5.15;100.00;95924.13;5070091;28;20468;-61
2022/12/25 09:18:51;;;;;;;24.50;22.40;;;;;;;5.21;100.00;95931.53;5068470;28;20439;-60
2022/12/25 09:21:17;;;;;;;44.60;39.65;;;;;;;5.28;100.00;95932.78;5067901;28;20072;-60
2022/12/25 09:23:43;;;;;;;31.00;27.75;;;;;;;5.34;100.00;95934.16;5069004;28;20032;-61
2022/12/25 09:26:12;;;;;;;28.25;25.45;;;;;;;5.38;100.00;95930.41;5069277;28;20410;-60
2022/12/25 09:28:38;;;;;;;36.15;31.65;;;;;;;5.40;100.00;95933.72;5069336;28;20059;-60
2022/12/25 09:31:04;;;;;;;28.38;25.52;;;;;;;5.44;100.00;95923.94;5068649;28;20498;-66
2022/12/25 09:33:29;;;;;;;30.27;27.08;;;;;;;5.53;100.00;95927.69;5067694;28;20029;-65
2022/12/25 09:36:13;;;;;;;27.05;24.35;;;;;;;5.61;100.00;95933.22;5066783;28;20032;-66
2022/12/25 09:38:38;;;;;;;27.90;25.17;;;;;;;5.73;100.00;95935.00;5060796;28;20047;-66
2022/12/25 09:41:16;;;;;;;35.80;32.13;;;;;;;5.98;100.00;95948.97;5067234;28;20040;-65
2022/12/25 09:43:47;;;;;;;37.72;33.70;;;;;;;6.25;100.00;95953.22;5063450;28;20052;-65
2022/12/25 09:46:18;;;;;;;29.48;26.52;;;;;;;6.44;100.00;95958.00;5065954;28;20113;-57
2022/12/25 09:49:03;;;;;;;36.25;32.35;;;;;;;6.70;100.00;95963.13;5066378;28;20041;-59
2022/12/25 09:51:32;;;;;;;46.58;41.70;;;;;;;6.93;100.00;95959.75;5070282;28;20144;-61
2022/12/25 09:54:16;;;;;;;38.88;34.72;;;;;;;7.09;100.00;95960.31;5069687;28;20125;-61
2022/12/25 09:56:41;;;;;;;34.75;31.38;;;;;;;7.33;100.00;95967.28;5068158;28;20451;-61
2022/12/25 09:59:17;;;;;;;42.28;38.03;;;;;;;7.51;100.00;95970.28;5068135;28;20126;-62
2022/12/25 10:02:27;;;;;;;38.50;34.55;;;;;;;7.69;100.00;95973.31;5065165;28;20067;-62
2022/12/25 10:05:30;;;;;;;25.83;23.33;;;;;;;7.89;100.00;95976.19;5057843;28;20150;-61
2022/12/25 10:08:10;;;;;;;13.63;12.43;;;;;;;7.91;100.00;95981.31;5066940;28;20044;-67
2022/12/25 10:10:55;;;;;;;10.35;9.48;;;;;;;7.77;100.00;95972.72;5061096;28;20032;-60
2022/12/25 10:13:57;;;;;;;13.10;10.88;;;;;;;7.57;100.00;95969.84;5066714;28;20040;-61
2022/12/25 10:16:47;;;;;;;12.35;11.20;;;;;;;7.73;100.00;95979.13;5062680;28;20036;-60
2022/12/25 10:19:12;;;;;;;11.43;9.95;;;;;;;7.91;100.00;95970.81;5068577;28;20047;-60
2022/12/25 10:21:38;;;;;;;7.65;7.05;;;;;;;7.93;100.00;95968.91;5066436;28;20036;-60
2022/12/25 10:24:18;;;;;;;8.18;7.32;;;;;;;8.06;100.00;95946.03;5035166;28;20036;-60
2022/12/25 10:26:44;;;;;;;10.48;9.40;;;;;;;8.25;100.00;95950.66;5065067;28;20055;-60
2022/12/25 10:29:15;;;;;;;13.43;12.23;;;;;;;8.49;100.00;95952.28;5068834;28;20068;-67
2022/12/25 10:31:47;;;;;;;8.75;8.02;;;;;;;8.66;100.00;95944.91;5068579;28;20028;-68
2022/12/25 10:34:14;;;;;;;6.55;5.38;;;;;;;8.92;100.00;95934.91;5063917;28;20039;-67
2022/12/25 10:36:42;;;;;;;3.60;3.40;;;;;;;9.01;100.00;95946.44;5067489;28;20422;-67
2022/12/25 10:39:15;;;;;;;5.68;4.18;;;;;;;9.08;100.00;95939.72;5065383;28;20044;-67
2022/12/25 10:42:10;;;;;;;50.33;45.55;;;;;;;9.33;100.00;95935.06;5064019;28;20562;-67
2022/12/25 10:44:36;;;;;;;20.20;16.10;;;;;;;9.52;100.00;95931.75;5068440;28;20060;-64
2022/12/25 10:47:03;;;;;;;8.65;5.90;;;;;;;9.65;100.00;95942.03;5066452;28;20576;-68
2022/12/25 10:49:33;;;;;;;3.60;3.30;;;;;;;9.73;100.00;95926.44;5068534;28;20120;-71
2022/12/25 10:51:59;;;;;;;3.10;2.90;;;;;;;9.78;100.00;95941.84;5066842;28;20064;-70
2022/12/25 10:54:36;;;;;;;6.68;6.18;;;;;;;9.90;100.00;95929.44;5065923;28;20127;-70
2022/12/25 10:57:03;;;;;;;3.85;3.55;;;;;;;10.11;100.00;95925.91;5065964;28;20048;-70
2022/12/25 10:59:34;;;;;;;8.73;8.02;;;;;;;10.23;100.00;95929.28;5070331;28;20033;-69
2022/12/25 11:02:20;;;;;;;3.53;3.22;;;;;;;10.28;100.00;95933.16;5069394;28;20040;-69
2022/12/25 11:04:46;;;;;;;10.55;9.40;;;;;;;10.45;100.00;95926.44;5066524;28;20402;-68
2022/12/25 11:07:21;;;;;;;3.05;2.85;;;;;;;10.55;100.00;95918.56;5060823;28;20048;-60
2022/12/25 11:10:02;;;;;;;5.78;2.42;;;;;;;10.57;100.00;95906.09;5065613;28;20448;-60
2022/12/25 11:12:35;;;;;;;2.47;2.38;;;;;;;10.63;100.00;95898.63;5067123;28;20111;-60
2022/12/25 11:15:26;;;;;;;3.25;2.75;;;;;;;10.79;100.00;95901.56;5061951;28;20040;-60
2022/12/25 11:17:51;;;;;;;2.60;2.50;;;;;;;10.93;100.00;95900.31;5064248;28;20044;-60
2022/12/25 11:20:18;;;;;;;2.40;2.20;;;;;;;10.97;100.00;95890.31;5065438;28;20127;-60
2022/12/25 11:22:46;;;;;;;3.03;2.83;;;;;;;11.18;100.00;95893.63;5068650;28;20123;-60
2022/12/25 11:25:13;;;;;;;3.05;2.85;;;;;;;11.44;100.00;95882.47;5063937;28;20045;-66
2022/12/25 11:27:38;;;;;;;7.05;5.50;;;;;;;11.69;100.00;95880.19;5068639;28;20061;-69
2022/12/25 11:30:06;;;;;;;3.20;2.90;;;;;;;11.58;100.00;95872.44;5067545;28;20017;-69
2022/12/25 11:32:44;;;;;;;4.15;2.30;;;;;;;11.70;100.00;95873.94;5066888;28;20061;-69
2022/12/25 11:35:13;;;;;;;3.45;3.25;;;;;;;12.00;100.00;95863.25;5068012;28;20025;-69
2022/12/25 11:37:42;;;;;;;6.35;5.75;;;;;;;12.29;100.00;95868.41;5066335;28;20044;-69
2022/12/25 11:40:14;;;;;;;3.25;3.00;;;;;;;12.56;100.00;95860.56;5067341;28;20036;-70
2022/12/25 11:42:46;;;;;;;9.60;7.80;;;;;;;12.80;100.00;95869.72;5061931;28;20092;-69
2022/12/25 11:45:14;;;;;;;5.63;5.13;;;;;;;13.13;95.81;95870.81;5058470;28;20041;-68
2022/12/25 11:47:47;;;;;;;4.07;3.47;;;;;;;13.19;95.93;95866.72;5065132;28;20041;-64
2022/12/25 11:50:23;;;;;;;5.13;4.40;;;;;;;13.18;93.67;95865.06;5064426;28;20036;-64
2022/12/25 11:52:50;;;;;;;1.60;1.60;;;;;;;13.35;95.00;95858.06;5066168;28;20044;-64
2022/12/25 11:55:16;;;;;;;2.00;1.90;;;;;;;13.32;94.27;95858.41;5071073;28;20028;-64
2022/12/25 11:57:44;;;;;;;2.75;1.80;;;;;;;13.25;92.93;95860.81;5068819;28;20120;-64
2022/12/25 12:00:14;;;;;;;5.70;2.90;;;;;;;13.03;91.13;95851.59;5073314;28;20040;-65
2022/12/25 12:03:00;;;;;;;6.05;3.70;;;;;;;12.92;92.77;95857.94;5072016;28;20551;-66
2022/12/25 12:05:37;;;;;;;2.90;2.70;;;;;;;12.76;92.38;95858.63;5066892;28;20127;-68
2022/12/25 12:08:05;;;;;;;3.10;2.90;;;;;;;12.98;92.45;95857.31;5069047;28;20036;-67
2022/12/25 12:10:41;;;;;;;5.40;4.22;;;;;;;13.26;85.60;95849.28;5069559;28;20086;-68
2022/12/25 12:13:26;;;;;;;4.40;4.00;;;;;;;12.88;88.87;95849.47;5068864;28;20036;-68
2022/12/25 12:15:52;;;;;;;5.63;5.13;;;;;;;12.94;90.31;95852.53;5070802;28;20505;-67
2022/12/25 12:18:26;;;;;;;3.47;3.17;;;;;;;12.86;87.85;95859.38;5066230;28;20151;-68
2022/12/25 12:21:04;;;;;;;5.20;3.30;;;;;;;12.95;89.68;95855.00;5064884;28;20036;-68
2022/12/25 12:23:44;;;;;;;5.47;4.10;;;;;;;12.88;89.31;95869.81;5070910;28;20038;-69
2022/12/25 12:26:17;;;;;;;5.97;5.18;;;;;;;12.98;88.09;95857.31;5067879;28;20032;-61
2022/12/25 12:28:44;;;;;;;9.40;7.10;;;;;;;12.96;90.11;95866.41;5066135;28;20044;-60
2022/12/25 12:31:10;;;;;;;11.98;9.15;;;;;;;13.22;87.74;95861.13;5067137;28;20466;-60
2022/12/25 12:33:55;;;;;;;4.65;4.18;;;;;;;12.97;88.17;95854.84;5070644;28;20124;-60
2022/12/25 12:36:21;;;;;;;4.07;3.67;;;;;;;12.94;88.94;95848.03;5068328;28;20036;-60
2022/12/25 12:38:49;;;;;;;3.65;3.25;;;;;;;12.85;88.01;95856.91;5068333;28;20044;-60
2022/12/25 12:41:15;;;;;;;7.95;4.45;;;;;;;13.02;87.43;95852.56;5065463;28;20529;-71
2022/12/25 12:43:45;;;;;;;4.05;3.10;;;;;;;12.83;88.22;95845.66;5069569;28;20423;-60
2022/12/25 12:46:20;;;;;;;7.40;4.47;;;;;;;12.83;87.39;95854.41;5068442;28;20039;-61
2022/12/25 12:48:48;;;;;;;6.38;5.50;;;;;;;12.95;88.43;95847.06;5069562;28;20045;-60
2022/12/25 12:51:31;;;;;;;4.68;4.20;;;;;;;12.85;88.69;95841.88;5067013;28;20037;-60
2022/12/25 12:54:21;;;;;;;11.35;5.78;;;;;;;12.88;87.83;95840.75;5066046;28;20443;-60
2022/12/25 12:57:04;;;;;;;3.25;2.97;;;;;;;12.92;88.73;95843.88;5066855;28;20036;-60
2022/12/25 12:59:33;;;;;;;8.93;4.45;;;;;;;13.09;88.29;95829.81;5072809;28;20530;-60
2022/12/25 13:02:17;;;;;;;6.88;3.25;;;;;;;13.08;86.05;95825.53;5065916;28;20070;-67
2022/12/25 13:05:23;;;;;;;20.45;11.82;;;;;;;13.17;86.47;95837.81;5066652;28;20064;-67
2022/12/25 13:08:30;;;;;;;4.07;3.78;;;;;;;13.24;85.82;95826.63;5065167;28;20089;-67
2022/12/25 13:11:23;;;;;;;9.45;7.22;;;;;;;13.28;85.13;95828.81;5069147;28;20028;-66
2022/12/25 13:13:52;;;;;;;4.60;4.20;;;;;;;13.43;86.59;95831.75;5066235;28;20036;-67